createdAt,value
2022-08-09T00:02:28.255Z,9.25
2022-08-09T00:05:02.848Z,6.75
2022-08-09T00:07:44.850Z,7.30
2022-08-09T00:10:21.532Z,6.78
2022-08-09T00:12:53.071Z,9.27
2022-08-09T00:15:26.827Z,9.65
2022-08-09T00:18:11.498Z,7.07
2022-08-09T00:20:41.520Z,8.40
2022-08-09T00:23:57.103Z,8.52
2022-08-09T00:26:05.234Z,7.32
2022-08-09T00:28:34.765Z,7.38
2022-08-09T00:31:30.509Z,7.95
2022-08-09T00:33:51.810Z,6.60
2022-08-09T00:36:19.666Z,13.63
2022-08-09T00:38:46.897Z,9.43
2022-08-09T00:44:11.019Z,9.68
2022-08-09T00:44:14.338Z,7.60
2022-08-09T00:46:57.489Z,9.55
2022-08-09T00:49:31.863Z,8.50
2022-08-09T00:52:05.211Z,8.35
2022-08-09T00:54:35.938Z,6.53
2022-08-09T00:57:08.915Z,7.53
2022-08-09T00:59:40.906Z,6.80
2022-08-09T01:02:08.941Z,8.15
2022-08-09T01:04:37.995Z,7.72
2022-08-09T01:07:13.832Z,8.38
2022-08-09T01:10:01.462Z,9.35
2022-08-09T01:12:58.078Z,8.00
2022-08-09T01:15:25.770Z,6.65
2022-08-09T01:17:57.581Z,7.88
2022-08-09T01:20:43.850Z,9.50
2022-08-09T01:24:02.150Z,7.63
2022-08-09T01:26:19.583Z,6.05
2022-08-09T01:28:48.329Z,9.00
2022-08-09T01:32:28.229Z,8.85
2022-08-09T01:34:03.959Z,10.50
2022-08-09T01:36:36.011Z,8.95
2022-08-09T01:39:06.594Z,6.95
2022-08-09T01:41:35.637Z,7.50
2022-08-09T01:44:04.132Z,8.50
2022-08-09T01:46:36.013Z,8.63
2022-08-09T01:49:09.772Z,7.28
2022-08-09T01:51:38.393Z,6.60
2022-08-09T01:54:10.047Z,7.55
2022-08-09T01:56:38.028Z,7.85
2022-08-09T01:59:07.152Z,11.15
2022-08-09T02:01:59.576Z,14.35
2022-08-09T02:04:22.094Z,10.60
2022-08-09T02:07:08.714Z,9.50
2022-08-09T02:09:47.536Z,6.85
2022-08-09T02:12:27.136Z,8.32
2022-08-09T02:14:55.848Z,8.82
2022-08-09T02:18:00.594Z,8.25
2022-08-09T02:20:25.319Z,8.88
2022-08-09T02:22:53.922Z,7.63
2022-08-09T02:25:21.895Z,7.47
2022-08-09T02:28:00.177Z,8.38
2022-08-09T02:30:32.499Z,9.15
2022-08-09T02:33:01.279Z,7.57
2022-08-09T02:36:02.804Z,10.05
2022-08-09T02:38:27.943Z,8.10
2022-08-09T02:40:56.884Z,12.45
2022-08-09T02:43:24.283Z,11.13
2022-08-09T02:45:55.909Z,12.07
2022-08-09T02:48:31.045Z,20.60
2022-08-09T02:50:59.056Z,17.10
2022-08-09T02:53:31.496Z,17.50
2022-08-09T02:56:01.603Z,18.48
2022-08-09T02:58:36.205Z,16.80
2022-08-09T03:01:06.141Z,14.68
2022-08-09T03:04:12.215Z,15.35
2022-08-09T03:06:22.681Z,12.52
2022-08-09T03:08:50.027Z,14.68
2022-08-09T03:12:06.362Z,13.20
2022-08-09T03:14:07.312Z,11.50
2022-08-09T03:16:37.374Z,13.18
2022-08-09T03:19:16.643Z,19.75
2022-08-09T03:21:56.345Z,10.32
2022-08-09T03:24:42.389Z,16.30
2022-08-09T03:27:11.780Z,17.02
2022-08-09T03:29:43.225Z,16.45
2022-08-09T03:32:26.443Z,15.50
2022-08-09T03:34:54.181Z,16.83
2022-08-09T03:37:55.450Z,16.35
2022-08-09T03:40:13.242Z,16.95
2022-08-09T03:42:43.095Z,13.48
2022-08-09T03:45:10.898Z,15.45
2022-08-09T03:47:40.180Z,14.20
2022-08-09T03:50:09.599Z,14.85
2022-08-09T03:52:38.181Z,13.57
2022-08-09T03:55:07.716Z,13.60
2022-08-09T03:57:44.691Z,13.43
2022-08-09T04:00:24.281Z,15.13
2022-08-09T04:02:53.558Z,11.77
2022-08-09T04:05:26.999Z,13.75
2022-08-09T04:07:57.336Z,12.60
2022-08-09T04:10:29.224Z,12.65
2022-08-09T04:12:57.849Z,12.88
2022-08-09T04:15:52.043Z,18.38
2022-08-09T04:18:16.480Z,19.42
2022-08-09T04:20:45.469Z,20.25
2022-08-09T04:23:17.024Z,14.55
2022-08-09T04:25:44.626Z,17.42
2022-08-09T04:28:17.126Z,16.90
2022-08-09T04:31:07.705Z,18.30
2022-08-09T04:33:47.664Z,17.55
2022-08-09T04:36:20.623Z,18.55
2022-08-09T04:38:50.461Z,15.40
2022-08-09T04:41:17.634Z,12.75
2022-08-09T04:43:53.982Z,12.98
2022-08-09T04:46:38.013Z,9.32
2022-08-09T04:49:22.302Z,28.80
2022-08-09T04:52:07.479Z,66.03
2022-08-09T04:54:36.752Z,25.60
2022-08-09T04:57:04.128Z,23.25
2022-08-09T04:59:31.550Z,17.23
2022-08-09T05:01:58.709Z,10.93
2022-08-09T05:04:31.125Z,10.88
2022-08-09T05:06:58.786Z,14.50
2022-08-09T05:09:42.153Z,8.25
2022-08-09T05:12:13.155Z,8.77
2022-08-09T05:14:42.906Z,9.38
2022-08-09T05:18:36.835Z,10.50
2022-08-09T05:19:58.251Z,8.13
2022-08-09T05:23:50.998Z,9.30
2022-08-09T05:25:15.116Z,23.50
2022-08-09T05:27:45.473Z,15.57
2022-08-09T05:30:15.219Z,12.10
2022-08-09T05:32:45.414Z,10.60
2022-08-09T05:35:18.334Z,9.85
2022-08-09T05:37:50.173Z,11.13
2022-08-09T05:40:18.324Z,25.10
2022-08-09T05:42:46.079Z,13.25
2022-08-09T05:45:14.162Z,15.80
2022-08-09T05:47:51.830Z,12.38
2022-08-09T05:50:32.466Z,19.90
2022-08-09T05:53:11.743Z,11.68
2022-08-09T05:55:50.710Z,9.07
2022-08-09T05:58:20.298Z,5.82
2022-08-09T06:00:48.491Z,8.98
2022-08-09T06:03:19.990Z,9.48
2022-08-09T06:05:50.179Z,5.22
2022-08-09T06:08:25.473Z,6.45
2022-08-09T06:10:55.849Z,6.25
2022-08-09T06:13:23.211Z,4.32
2022-08-09T06:15:51.716Z,5.72
2022-08-09T06:18:19.586Z,5.70
2022-08-09T06:20:54.281Z,5.97
2022-08-09T06:23:24.022Z,6.97
2022-08-09T06:26:11.142Z,3.75
2022-08-09T06:28:38.391Z,5.18
2022-08-09T06:31:05.564Z,4.32
2022-08-09T06:33:40.990Z,7.90
2022-08-09T06:36:09.364Z,7.45
2022-08-09T06:38:47.257Z,7.07
2022-08-09T06:41:19.109Z,2.53
2022-08-09T06:43:47.828Z,4.70
2022-08-09T06:46:40.236Z,5.40
2022-08-09T06:49:02.499Z,5.30
2022-08-09T06:51:29.639Z,4.63
2022-08-09T06:54:00.958Z,3.30
2022-08-09T06:56:30.606Z,2.58
2022-08-09T07:00:50.919Z,4.40
2022-08-09T07:01:54.180Z,5.25
2022-08-09T07:04:27.087Z,3.05
2022-08-09T07:07:00.563Z,2.40
2022-08-09T07:09:57.181Z,6.28
2022-08-09T07:12:18.147Z,2.22
2022-08-09T07:14:51.286Z,2.60
2022-08-09T07:17:21.451Z,2.65
2022-08-09T07:19:50.767Z,2.50
2022-08-09T07:22:27.265Z,3.97
2022-08-09T07:25:01.352Z,2.97
2022-08-09T07:27:34.087Z,3.63
2022-08-09T07:30:09.820Z,1.90
2022-08-09T07:32:37.202Z,4.35
2022-08-09T07:35:10.545Z,3.42
2022-08-09T07:37:44.089Z,2.92
2022-08-09T07:40:17.597Z,5.15
2022-08-09T07:42:54.534Z,2.30
2022-08-09T07:45:39.085Z,2.42
2022-08-09T07:48:25.544Z,2.33
2022-08-09T07:51:09.729Z,3.15
2022-08-09T07:54:05.203Z,3.80
2022-08-09T07:56:31.083Z,3.10
2022-08-09T07:58:59.412Z,3.08
2022-08-09T08:01:33.968Z,2.38
2022-08-09T08:04:01.867Z,6.90
2022-08-09T08:06:31.832Z,2.25
2022-08-09T08:09:05.033Z,2.20
2022-08-09T08:12:24.054Z,7.57
2022-08-09T08:14:24.264Z,1.98
2022-08-09T08:17:00.561Z,3.42
2022-08-09T08:19:34.400Z,3.75
2022-08-09T08:22:03.605Z,3.08
2022-08-09T08:24:35.316Z,4.55
2022-08-09T08:27:16.517Z,2.85
2022-08-09T08:29:48.659Z,5.30
2022-08-09T08:32:24.294Z,3.08
2022-08-09T08:34:58.759Z,11.27
2022-08-09T08:37:42.048Z,5.68
2022-08-09T08:40:15.423Z,2.72
2022-08-09T08:42:47.455Z,1.80
2022-08-09T08:45:14.755Z,3.50
2022-08-09T08:47:44.677Z,2.25
2022-08-09T08:50:14.512Z,2.88
2022-08-09T08:52:57.889Z,3.03
2022-08-09T08:55:27.029Z,5.68
2022-08-09T08:57:57.661Z,1.25
2022-08-09T09:00:30.087Z,1.80
2022-08-09T09:03:11.604Z,2.45
2022-08-09T09:05:59.742Z,5.07
2022-08-09T09:08:40.710Z,1.48
2022-08-09T09:11:13.552Z,2.60
2022-08-09T09:13:55.354Z,3.35
2022-08-09T09:16:30.644Z,1.80
2022-08-09T09:19:22.709Z,2.50
2022-08-09T09:22:00.684Z,2.45
2022-08-09T09:24:30.351Z,3.55
2022-08-09T09:27:00.086Z,4.20
2022-08-09T09:30:09.324Z,15.02
2022-08-09T09:32:34.385Z,1.70
2022-08-09T09:35:02.650Z,3.22
2022-08-09T09:37:35.104Z,4.03
2022-08-09T09:40:03.523Z,5.05
2022-08-09T09:42:31.224Z,3.17
2022-08-09T09:45:05.267Z,3.25
2022-08-09T09:47:40.750Z,1.50
2022-08-09T09:50:15.778Z,3.45
2022-08-09T09:52:55.859Z,2.08
2022-08-09T09:55:31.356Z,3.20
2022-08-09T09:58:16.530Z,1.50
2022-08-09T10:01:04.943Z,8.80
2022-08-09T10:03:57.169Z,8.82
2022-08-09T10:06:27.018Z,2.30
2022-08-09T10:09:00.715Z,6.30
2022-08-09T10:11:58.945Z,2.22
2022-08-09T10:14:27.287Z,4.05
2022-08-09T10:17:05.259Z,3.35
2022-08-09T10:19:42.091Z,2.92
2022-08-09T10:22:13.100Z,2.28
2022-08-09T10:24:41.056Z,3.53
2022-08-09T10:27:10.375Z,3.33
2022-08-09T10:30:56.807Z,1.92
2022-08-09T10:32:42.166Z,1.83
2022-08-09T10:35:10.397Z,2.53
2022-08-09T10:37:40.427Z,4.25
2022-08-09T10:40:12.114Z,1.52
2022-08-09T10:42:56.547Z,3.13
2022-08-09T10:45:24.187Z,5.63
2022-08-09T10:48:20.292Z,3.17
2022-08-09T10:51:06.754Z,2.72
2022-08-09T10:53:37.959Z,2.28
2022-08-09T10:56:25.791Z,2.05
2022-08-09T10:58:54.017Z,2.20
2022-08-09T11:03:16.188Z,1.85
2022-08-09T11:04:31.239Z,3.58
2022-08-09T11:07:00.059Z,3.15
2022-08-09T11:09:41.051Z,2.25
2022-08-09T11:12:29.459Z,2.08
2022-08-09T11:15:01.679Z,1.52
2022-08-09T11:17:32.601Z,2.80
2022-08-09T11:20:23.129Z,3.20
2022-08-09T11:22:56.812Z,2.28
2022-08-09T11:25:36.335Z,2.03
2022-08-09T11:28:34.090Z,2.17
2022-08-09T11:31:02.772Z,1.95
2022-08-09T11:33:36.906Z,1.50
2022-08-09T11:36:05.687Z,2.63
2022-08-09T11:38:34.122Z,2.92
2022-08-09T11:41:16.021Z,3.10
2022-08-09T11:43:44.048Z,3.50
2022-08-09T11:46:11.573Z,5.10
2022-08-09T11:48:52.352Z,3.20
2022-08-09T11:53:04.301Z,1.92
2022-08-09T11:54:13.009Z,2.15
2022-08-09T11:56:42.619Z,1.40
2022-08-09T11:59:29.889Z,2.72
2022-08-09T12:02:34.389Z,2.38
2022-08-09T12:04:44.535Z,4.63
2022-08-09T12:07:11.738Z,1.60
2022-08-09T12:09:51.042Z,3.65
2022-08-09T12:12:28.905Z,3.92
2022-08-09T12:15:03.846Z,4.53
2022-08-09T12:17:43.298Z,3.42
2022-08-09T12:20:21.353Z,2.00
2022-08-09T12:22:50.600Z,5.07
2022-08-09T12:25:32.085Z,1.83
2022-08-09T12:28:59.035Z,2.28
2022-08-09T12:30:58.797Z,4.43
2022-08-09T12:33:26.476Z,11.05
2022-08-09T12:36:05.849Z,1.58
2022-08-09T12:38:53.475Z,2.38
2022-08-09T12:41:38.946Z,2.67
2022-08-09T12:44:10.403Z,1.85
2022-08-09T12:46:41.451Z,1.60
2022-08-09T12:49:10.475Z,3.47
2022-08-09T12:52:01.391Z,3.13
2022-08-09T12:54:24.940Z,1.50
2022-08-09T12:56:53.921Z,1.42
2022-08-09T12:59:22.177Z,2.70
2022-08-09T13:01:50.399Z,1.98
2022-08-09T13:04:36.471Z,3.22
2022-08-09T13:07:11.754Z,1.52
2022-08-09T13:09:40.923Z,1.38
2022-08-09T13:12:10.712Z,4.65
2022-08-09T13:14:44.979Z,2.88
2022-08-09T13:17:43.718Z,3.30
2022-08-09T13:20:14.394Z,3.08
2022-08-09T13:23:01.253Z,3.33
2022-08-09T13:25:54.585Z,1.90
2022-08-09T13:28:34.198Z,1.52
2022-08-09T13:32:12.534Z,1.95
2022-08-09T13:33:53.826Z,2.35
2022-08-09T13:36:24.080Z,5.53
2022-08-09T13:41:20.824Z,2.55
2022-08-09T13:42:06.270Z,3.45
2022-08-09T13:44:40.178Z,3.50
2022-08-09T13:47:26.888Z,1.88
2022-08-09T13:50:00.963Z,3.25
2022-08-09T13:52:29.347Z,2.35
2022-08-09T13:55:00.082Z,1.85
2022-08-09T13:57:40.477Z,1.60
2022-08-09T14:00:12.460Z,3.53
2022-08-09T14:02:42.929Z,1.75
2022-08-09T14:05:59.035Z,3.55
2022-08-09T14:08:15.850Z,1.92
2022-08-09T14:10:49.421Z,2.33
2022-08-09T14:13:21.579Z,7.35
2022-08-09T14:16:09.834Z,2.22
2022-08-09T14:18:38.344Z,3.63
2022-08-09T14:21:05.970Z,3.25
2022-08-09T14:23:40.809Z,5.13
2022-08-09T14:26:21.366Z,5.05
2022-08-09T14:28:48.526Z,2.20
2022-08-09T14:31:15.755Z,2.10
2022-08-09T14:33:42.948Z,3.20
2022-08-09T14:36:20.191Z,5.05
2022-08-09T14:38:52.691Z,7.47
2022-08-09T14:41:34.666Z,5.22
2022-08-09T14:44:09.603Z,5.65
2022-08-09T14:46:58.660Z,62.25
2022-08-09T14:49:26.311Z,6.75
2022-08-09T14:51:58.762Z,7.38
2022-08-09T14:54:27.706Z,7.32
2022-08-09T14:56:58.738Z,6.28
2022-08-09T14:59:27.393Z,19.92
2022-08-09T15:01:55.835Z,2.03
2022-08-09T15:04:23.538Z,4.00
2022-08-09T15:06:51.416Z,2.20
2022-08-09T15:10:03.975Z,3.05
2022-08-09T15:12:08.094Z,1.90
2022-08-09T15:14:38.179Z,2.95
2022-08-09T15:17:08.880Z,3.63
2022-08-09T15:19:36.760Z,3.75
2022-08-09T15:22:04.192Z,4.07
2022-08-09T15:24:32.755Z,7.80
2022-08-09T15:26:59.995Z,5.65
2022-08-09T15:30:59.470Z,4.25
2022-08-09T15:32:28.423Z,3.08
2022-08-09T15:34:59.863Z,11.98
2022-08-09T15:37:56.759Z,6.82
2022-08-09T15:40:32.291Z,3.35
2022-08-09T15:43:01.750Z,2.63
2022-08-09T15:45:29.956Z,1.63
2022-08-09T15:48:05.426Z,4.28
2022-08-09T15:50:39.279Z,3.33
2022-08-09T15:54:00.154Z,2.80
2022-08-09T15:56:21.570Z,1.52
2022-08-09T15:58:46.342Z,2.58
2022-08-09T16:01:13.777Z,2.70
2022-08-09T16:03:41.618Z,2.00
2022-08-09T16:06:16.111Z,2.22
2022-08-09T16:09:01.029Z,3.70
2022-08-09T16:11:30.806Z,3.33
2022-08-09T16:14:05.385Z,3.30
2022-08-09T16:16:34.595Z,3.15
2022-08-09T16:19:04.627Z,4.53
2022-08-09T16:21:35.038Z,4.40
2022-08-09T16:24:03.038Z,2.42
2022-08-09T16:26:35.437Z,4.90
2022-08-09T16:29:13.309Z,18.05
2022-08-09T16:32:17.965Z,5.40
2022-08-09T16:34:28.962Z,6.15
2022-08-09T16:36:56.379Z,7.95
2022-08-09T16:39:25.926Z,4.25
2022-08-09T16:42:03.854Z,4.78
2022-08-09T16:44:32.462Z,6.30
2022-08-09T16:47:03.993Z,5.55
2022-08-09T16:50:31.880Z,6.97
2022-08-09T16:52:34.803Z,2.67
2022-08-09T16:55:02.565Z,2.33
2022-08-09T16:58:09.093Z,2.30
2022-08-09T17:00:17.222Z,4.05
2022-08-09T17:02:46.223Z,1.60
2022-08-09T17:05:14.085Z,5.43
2022-08-09T17:08:44.723Z,2.80
2022-08-09T17:10:34.428Z,4.45
2022-08-09T17:13:03.721Z,4.78
2022-08-09T17:15:59.810Z,3.55
2022-08-09T17:18:27.093Z,2.83
2022-08-09T17:20:57.452Z,4.43
2022-08-09T17:24:20.214Z,3.80
2022-08-09T17:26:12.395Z,4.63
2022-08-09T17:28:39.675Z,1.90
2022-08-09T17:31:06.863Z,5.22
2022-08-09T17:33:35.871Z,3.08
2022-08-09T17:36:06.067Z,3.08
2022-08-09T17:38:39.516Z,4.68
2022-08-09T17:41:08.400Z,3.58
2022-08-09T17:43:37.367Z,5.47
2022-08-09T17:46:07.071Z,2.33
2022-08-09T17:48:39.788Z,3.28
2022-08-09T17:51:09.822Z,4.97
2022-08-09T17:53:51.982Z,5.22
2022-08-09T17:56:26.644Z,3.55
2022-08-09T17:58:56.076Z,5.00
2022-08-09T18:01:23.888Z,8.00
2022-08-09T18:03:54.881Z,14.05
2022-08-09T18:06:32.510Z,6.70
2022-08-09T18:09:01.907Z,15.55
2022-08-09T18:12:05.480Z,13.65
2022-08-09T18:14:20.245Z,11.07
2022-08-09T18:16:49.396Z,57.50
2022-08-09T18:20:56.514Z,73.40
2022-08-09T18:22:04.295Z,90.55
2022-08-09T18:24:31.446Z,21.23
2022-08-09T18:27:00.973Z,24.63
2022-08-09T18:30:42.120Z,8.30
2022-08-09T18:32:19.053Z,6.75
2022-08-09T18:34:48.323Z,7.68
2022-08-09T18:37:47.921Z,7.22
2022-08-09T18:40:02.787Z,9.75
2022-08-09T18:42:30.901Z,9.82
2022-08-09T18:45:01.165Z,6.30
2022-08-09T18:47:37.346Z,11.93
2022-08-09T18:50:09.964Z,12.18
2022-08-09T18:52:38.025Z,16.80
2022-08-09T18:55:06.452Z,13.10
2022-08-09T18:57:44.600Z,18.15
2022-08-09T19:00:16.371Z,15.90
2022-08-09T19:02:47.283Z,18.13
2022-08-09T19:05:28.602Z,12.90
2022-08-09T19:08:09.835Z,14.68
2022-08-09T19:10:39.197Z,17.80
2022-08-09T19:13:19.783Z,13.55
2022-08-09T19:15:58.977Z,14.32
2022-08-09T19:18:33.384Z,13.23
2022-08-09T19:21:03.549Z,13.20
2022-08-09T19:24:36.557Z,12.70
2022-08-09T19:26:29.136Z,10.70
2022-08-09T19:29:01.576Z,9.07
2022-08-09T19:31:30.589Z,9.50
2022-08-09T19:34:18.328Z,9.77
2022-08-09T19:36:50.761Z,8.27
2022-08-09T19:39:20.468Z,8.88
2022-08-09T19:41:55.998Z,9.13
2022-08-09T19:44:23.294Z,7.88
2022-08-09T19:46:53.530Z,8.30
2022-08-09T19:50:05.272Z,9.13
2022-08-09T19:52:08.575Z,9.98
2022-08-09T19:54:35.729Z,8.35
2022-08-09T19:57:02.869Z,8.80
2022-08-09T19:59:59.763Z,9.90
2022-08-09T20:04:16.692Z,12.15
2022-08-09T20:05:09.911Z,8.90
2022-08-09T20:07:59.599Z,10.80
2022-08-09T20:10:34.081Z,12.20
2022-08-09T20:13:02.936Z,13.00
2022-08-09T20:16:34.005Z,10.80
2022-08-09T20:18:22.164Z,11.15
2022-08-09T20:20:50.383Z,12.18
2022-08-09T20:23:19.537Z,9.98
2022-08-09T20:25:52.900Z,16.20
2022-08-09T20:28:28.122Z,14.85
2022-08-09T20:31:04.741Z,13.55
2022-08-09T20:33:41.146Z,12.30
2022-08-09T20:36:11.451Z,14.70
2022-08-09T20:39:18.830Z,16.63
2022-08-09T20:41:35.060Z,16.08
2022-08-09T20:44:09.878Z,12.75
2022-08-09T20:46:44.174Z,9.85
2022-08-09T20:49:12.082Z,11.30
2022-08-09T20:51:41.038Z,21.20
2022-08-09T20:54:12.417Z,22.92
2022-08-09T20:56:43.686Z,22.27
2022-08-09T20:59:17.327Z,19.60
2022-08-09T21:01:50.991Z,11.88
2022-08-09T21:05:53.626Z,14.05
2022-08-09T21:07:12.375Z,14.00
2022-08-09T21:09:56.701Z,10.98
2022-08-09T21:15:13.704Z,9.07
2022-08-09T21:18:21.861Z,11.88
2022-08-09T21:20:29.788Z,8.48
2022-08-09T21:22:57.722Z,10.18
2022-08-09T21:25:43.758Z,8.52
2022-08-09T21:28:15.818Z,11.13
2022-08-09T21:30:43.256Z,10.70
2022-08-09T21:33:10.519Z,11.98
2022-08-09T21:35:40.712Z,8.70
2022-08-09T21:38:12.082Z,10.50
2022-08-09T21:40:39.644Z,5.93
2022-08-09T21:43:09.515Z,11.93
2022-08-09T21:45:38.798Z,5.90
2022-08-09T21:48:06.938Z,8.50
2022-08-09T21:50:38.426Z,7.22
2022-08-09T21:53:06.971Z,6.00
2022-08-09T21:55:47.007Z,7.75
2022-08-09T21:58:14.221Z,52.90
2022-08-09T22:00:41.719Z,66.55
2022-08-09T22:03:19.733Z,78.88
2022-08-09T22:05:52.996Z,44.20
2022-08-09T22:08:24.751Z,39.90
2022-08-09T22:11:01.123Z,15.90
2022-08-09T22:13:43.469Z,20.17
2022-08-09T22:16:10.924Z,14.15
2022-08-09T22:18:38.608Z,8.80
2022-08-09T22:21:21.583Z,9.23
2022-08-09T22:23:59.563Z,10.10
2022-08-09T22:26:34.691Z,8.48
2022-08-09T22:29:07.030Z,5.65
2022-08-09T22:31:35.105Z,6.85
2022-08-09T22:34:02.247Z,6.38
2022-08-09T22:36:29.381Z,4.65
2022-08-09T22:39:46.957Z,4.80
2022-08-09T22:42:00.275Z,7.28
2022-08-09T22:44:29.868Z,27.17
2022-08-09T22:48:12.885Z,14.88
2022-08-09T22:49:47.552Z,10.95
2022-08-09T22:52:19.647Z,9.38
2022-08-09T22:54:47.079Z,7.45
2022-08-09T22:57:14.353Z,8.75
2022-08-09T22:59:57.901Z,9.98
2022-08-09T23:02:27.269Z,10.02
2022-08-09T23:04:54.859Z,8.55
2022-08-09T23:08:22.758Z,6.05
2022-08-09T23:10:30.802Z,8.13
2022-08-09T23:12:58.154Z,8.15
2022-08-09T23:15:25.422Z,6.80
2022-08-09T23:17:52.586Z,4.47
2022-08-09T23:20:19.798Z,10.63
2022-08-09T23:22:46.933Z,8.70
2022-08-09T23:25:14.092Z,7.82
2022-08-09T23:28:14.372Z,7.75
2022-08-09T23:30:29.137Z,5.03
2022-08-09T23:32:56.290Z,5.10
2022-08-09T23:35:23.447Z,8.27
2022-08-09T23:37:50.564Z,6.07
2022-08-09T23:40:17.902Z,4.65
2022-08-09T23:42:45.051Z,6.78
2022-08-09T23:45:37.183Z,5.18
2022-08-09T23:47:59.349Z,7.57
2022-08-09T23:50:26.496Z,9.77
2022-08-09T23:52:53.696Z,5.85
2022-08-09T23:55:22.026Z,7.15
2022-08-09T23:58:10.507Z,5.90
